createdAt,value
2022-11-13T00:01:52.107Z,97.12
2022-11-13T00:04:09.064Z,97.64
2022-11-13T00:06:26.253Z,97.62
2022-11-13T00:08:43.231Z,98.03
2022-11-13T00:11:01.168Z,97.89
2022-11-13T00:13:18.426Z,97.65
2022-11-13T00:15:35.371Z,98.02
2022-11-13T00:17:52.638Z,97.38
2022-11-13T00:20:09.724Z,98.07
2022-11-13T00:22:26.724Z,97.94
2022-11-13T00:24:43.799Z,97.45
2022-11-13T00:27:00.806Z,98.08
2022-11-13T00:29:17.936Z,97.87
2022-11-13T00:31:35.945Z,97.40
2022-11-13T00:36:36.180Z,97.47
2022-11-13T00:38:53.146Z,98.36
2022-11-13T00:41:10.208Z,97.98
2022-11-13T00:43:28.074Z,98.24
2022-11-13T00:45:45.125Z,98.00
2022-11-13T00:48:02.354Z,98.00
2022-11-13T00:50:20.386Z,97.90
2022-11-13T00:52:37.461Z,98.06
2022-11-13T00:54:55.375Z,97.88
2022-11-13T00:57:12.411Z,97.28
2022-11-13T00:59:30.592Z,97.89
2022-11-13T01:01:47.952Z,97.35
2022-11-13T01:04:04.903Z,96.86
2022-11-13T01:06:21.842Z,97.50
2022-11-13T01:08:39.809Z,97.98
2022-11-13T01:10:57.119Z,97.13
2022-11-13T01:13:14.160Z,96.93
2022-11-13T01:15:31.437Z,97.60
2022-11-13T01:17:48.848Z,97.24
2022-11-13T01:20:06.223Z,97.19
2022-11-13T01:22:23.493Z,97.30
2022-11-13T01:24:40.543Z,97.24
2022-11-13T01:26:58.516Z,97.46
2022-11-13T01:29:15.818Z,97.40
2022-11-13T01:31:33.870Z,97.30
2022-11-13T01:33:50.981Z,97.33
2022-11-13T01:36:08.209Z,97.33
2022-11-13T01:38:25.690Z,96.93
2022-11-13T01:40:43.244Z,97.59
2022-11-13T01:43:00.181Z,97.29
2022-11-13T01:45:17.194Z,97.12
2022-11-13T01:47:34.054Z,97.32
2022-11-13T01:49:51.237Z,97.34
2022-11-13T01:52:09.535Z,97.43
2022-11-13T01:54:27.615Z,96.81
2022-11-13T01:56:45.625Z,97.06
2022-11-13T01:59:02.972Z,97.57
2022-11-13T02:01:21.944Z,97.46
2022-11-13T02:03:38.880Z,97.72
2022-11-13T02:05:55.830Z,96.86
2022-11-13T02:08:13.186Z,97.72
2022-11-13T02:10:30.198Z,97.28
2022-11-13T02:12:47.436Z,96.74
2022-11-13T02:15:04.494Z,97.34
2022-11-13T02:17:21.567Z,96.82
2022-11-13T02:19:38.627Z,96.50
2022-11-13T02:21:55.731Z,96.77
2022-11-13T02:24:14.040Z,96.97
2022-11-13T02:26:31.098Z,97.07
2022-11-13T02:28:49.351Z,97.32
2022-11-13T02:31:06.240Z,96.92
2022-11-13T02:33:24.326Z,97.32
2022-11-13T02:35:41.337Z,97.32
2022-11-13T02:37:58.280Z,97.17
2022-11-13T02:40:15.680Z,97.32
2022-11-13T02:42:32.782Z,97.45
2022-11-13T02:44:49.907Z,97.87
2022-11-13T02:47:06.842Z,97.65
2022-11-13T02:49:24.171Z,97.47
2022-11-13T02:51:41.326Z,97.73
2022-11-13T02:54:02.757Z,97.18
2022-11-13T02:56:19.635Z,97.10
2022-11-13T02:58:36.940Z,98.13
2022-11-13T03:00:54.179Z,97.61
2022-11-13T03:03:11.375Z,96.85
2022-11-13T03:05:28.687Z,96.97
2022-11-13T03:07:45.797Z,97.09
2022-11-13T03:10:02.832Z,97.71
2022-11-13T03:12:20.781Z,97.39
2022-11-13T03:14:38.162Z,97.64
2022-11-13T03:16:56.388Z,97.59
2022-11-13T03:19:14.809Z,97.46
2022-11-13T03:21:32.110Z,97.47
2022-11-13T03:23:49.068Z,96.63
2022-11-13T03:26:06.128Z,97.32
2022-11-13T03:28:23.162Z,96.78
2022-11-13T03:30:40.490Z,96.99
2022-11-13T03:32:57.868Z,97.11
2022-11-13T03:35:14.906Z,96.90
2022-11-13T03:37:31.885Z,96.42
2022-11-13T03:39:49.129Z,97.03
2022-11-13T03:42:07.573Z,96.28
2022-11-13T03:44:25.039Z,96.41
2022-11-13T03:46:43.547Z,96.95
2022-11-13T03:49:00.800Z,96.45
2022-11-13T03:51:19.061Z,96.37
2022-11-13T03:53:36.118Z,96.92
2022-11-13T03:55:53.258Z,96.59
2022-11-13T03:58:10.285Z,96.15
2022-11-13T04:00:27.542Z,95.85
2022-11-13T04:02:44.525Z,96.01
2022-11-13T04:05:02.499Z,96.11
2022-11-13T04:07:22.013Z,96.03
2022-11-13T04:09:39.239Z,95.93
2022-11-13T04:11:56.284Z,95.95
2022-11-13T04:14:14.321Z,96.04
2022-11-13T04:16:31.289Z,95.93
2022-11-13T04:18:48.261Z,96.02
2022-11-13T04:21:06.315Z,96.48
2022-11-13T04:23:23.574Z,96.24
2022-11-13T04:25:40.798Z,96.36
2022-11-13T04:27:57.833Z,95.97
2022-11-13T04:30:14.791Z,96.02
2022-11-13T04:32:31.803Z,96.75
2022-11-13T04:34:49.991Z,96.64
2022-11-13T04:37:08.182Z,96.22
2022-11-13T04:39:25.372Z,96.31
2022-11-13T04:41:42.448Z,96.54
2022-11-13T04:43:59.991Z,96.63
2022-11-13T04:46:17.252Z,96.23
2022-11-13T04:48:34.462Z,96.61
2022-11-13T04:50:52.740Z,96.67
2022-11-13T04:53:10.733Z,96.97
2022-11-13T04:55:28.062Z,96.69
2022-11-13T04:57:45.019Z,96.77
2022-11-13T05:00:02.296Z,96.25
2022-11-13T05:02:20.269Z,96.44
2022-11-13T05:04:37.332Z,96.35
2022-11-13T05:06:54.507Z,96.19
2022-11-13T05:09:12.599Z,96.26
2022-11-13T05:11:29.574Z,96.51
2022-11-13T05:13:46.804Z,96.28
2022-11-13T05:16:05.161Z,96.67
2022-11-13T05:18:22.441Z,96.39
2022-11-13T05:20:39.765Z,96.56
2022-11-13T05:22:57.548Z,96.24
2022-11-13T05:25:14.566Z,96.00
2022-11-13T05:27:33.765Z,96.18
2022-11-13T05:29:51.003Z,96.25
2022-11-13T05:32:07.940Z,96.01
2022-11-13T05:34:26.201Z,96.28
2022-11-13T05:36:43.447Z,96.05
2022-11-13T05:39:00.449Z,95.92
2022-11-13T05:41:17.719Z,96.05
2022-11-13T05:43:34.939Z,95.80
2022-11-13T05:45:52.001Z,96.09
2022-11-13T05:48:09.027Z,96.06
2022-11-13T05:50:26.372Z,96.37
2022-11-13T05:52:44.358Z,96.23
2022-11-13T05:55:01.397Z,96.73
2022-11-13T05:57:18.442Z,96.22
2022-11-13T05:59:35.500Z,96.55
2022-11-13T06:01:52.655Z,96.22
2022-11-13T06:04:09.679Z,96.21
2022-11-13T06:06:27.013Z,96.37
2022-11-13T06:08:44.269Z,96.46
2022-11-13T06:11:01.178Z,96.38
2022-11-13T06:13:19.059Z,96.43
2022-11-13T06:15:36.145Z,96.37
2022-11-13T06:17:54.117Z,96.44
2022-11-13T06:20:11.091Z,96.15
2022-11-13T06:22:28.322Z,96.47
2022-11-13T06:24:45.559Z,96.45
2022-11-13T06:27:03.479Z,96.33
2022-11-13T06:29:20.682Z,96.17
2022-11-13T06:31:37.685Z,96.63
2022-11-13T06:33:54.987Z,97.02
2022-11-13T06:36:12.951Z,96.63
2022-11-13T06:38:30.473Z,96.88
2022-11-13T06:40:47.953Z,96.38
2022-11-13T06:43:04.984Z,96.40
2022-11-13T06:45:22.287Z,96.42
2022-11-13T06:47:40.500Z,96.38
2022-11-13T06:49:57.549Z,96.37
2022-11-13T06:52:14.556Z,96.26
2022-11-13T06:54:31.626Z,96.04
2022-11-13T06:56:48.572Z,95.94
2022-11-13T06:59:08.425Z,95.93
2022-11-13T07:01:25.761Z,95.45
2022-11-13T07:03:42.851Z,94.97
2022-11-13T07:06:00.102Z,94.54
2022-11-13T07:08:17.369Z,94.69
2022-11-13T07:10:34.690Z,94.62
2022-11-13T07:12:54.838Z,94.52
2022-11-13T07:15:13.038Z,94.30
2022-11-13T07:17:31.021Z,94.37
2022-11-13T07:19:48.354Z,94.99
2022-11-13T07:22:05.385Z,94.71
2022-11-13T07:24:22.362Z,94.66
2022-11-13T07:26:39.340Z,94.99
2022-11-13T07:28:56.377Z,94.62
2022-11-13T07:31:14.336Z,94.32
2022-11-13T07:33:31.352Z,94.50
2022-11-13T07:35:48.647Z,94.84
2022-11-13T07:38:05.553Z,94.19
2022-11-13T07:40:22.538Z,93.94
2022-11-13T07:42:39.512Z,94.61
2022-11-13T07:44:56.855Z,94.17
2022-11-13T07:47:14.130Z,93.72
2022-11-13T07:49:31.144Z,94.04
2022-11-13T07:51:48.441Z,94.67
2022-11-13T07:54:05.540Z,95.39
2022-11-13T07:56:23.529Z,95.30
2022-11-13T07:58:41.560Z,95.11
2022-11-13T08:00:59.564Z,95.27
2022-11-13T08:03:16.536Z,95.33
2022-11-13T08:05:33.452Z,95.10
2022-11-13T08:07:51.503Z,94.96
2022-11-13T08:10:08.562Z,94.80
2022-11-13T08:12:25.458Z,94.58
2022-11-13T08:14:42.485Z,93.80
2022-11-13T08:16:59.553Z,94.48
2022-11-13T08:19:16.910Z,94.23
2022-11-13T08:21:33.984Z,94.19
2022-11-13T08:23:52.702Z,94.12
2022-11-13T08:26:09.749Z,93.82
2022-11-13T08:28:27.340Z,93.43
2022-11-13T08:30:44.438Z,93.69
2022-11-13T08:33:01.462Z,93.78
2022-11-13T08:35:20.310Z,93.21
2022-11-13T08:37:38.987Z,93.68
2022-11-13T08:39:56.035Z,93.99
2022-11-13T08:42:13.029Z,94.05
2022-11-13T08:44:30.254Z,93.48
2022-11-13T08:46:47.228Z,93.13
2022-11-13T08:49:04.476Z,92.68
2022-11-13T08:51:21.736Z,92.46
2022-11-13T08:53:38.788Z,92.72
2022-11-13T08:55:56.026Z,92.96
2022-11-13T08:58:13.338Z,93.65
2022-11-13T09:00:30.375Z,94.08
2022-11-13T09:02:47.888Z,94.01
2022-11-13T09:05:04.899Z,94.16
2022-11-13T09:07:27.199Z,93.89
2022-11-13T09:09:44.606Z,94.30
2022-11-13T09:12:01.526Z,94.16
2022-11-13T09:14:18.661Z,93.97
2022-11-13T09:16:36.196Z,93.95
2022-11-13T09:18:53.141Z,93.51
2022-11-13T09:21:10.067Z,92.79
2022-11-13T09:23:27.035Z,92.72
2022-11-13T09:25:44.036Z,92.02
2022-11-13T09:28:01.106Z,91.35
2022-11-13T09:30:18.082Z,90.59
2022-11-13T09:32:36.349Z,90.16
2022-11-13T09:34:53.323Z,89.20
2022-11-13T09:37:10.619Z,88.06
2022-11-13T09:39:27.849Z,85.41
2022-11-13T09:41:45.117Z,82.85
2022-11-13T09:44:02.130Z,81.51
2022-11-13T09:46:19.160Z,81.61
2022-11-13T09:48:37.840Z,81.20
2022-11-13T09:50:55.937Z,81.82
2022-11-13T09:53:13.097Z,82.76
2022-11-13T09:55:30.150Z,81.54
2022-11-13T09:57:47.359Z,82.59
2022-11-13T10:00:04.596Z,83.45
2022-11-13T10:02:21.631Z,81.97
2022-11-13T10:04:38.648Z,82.23
2022-11-13T10:06:55.915Z,82.56
2022-11-13T10:09:12.951Z,82.42
2022-11-13T10:11:30.255Z,82.76
2022-11-13T10:13:47.196Z,81.98
2022-11-13T10:16:04.426Z,81.98
2022-11-13T10:18:21.658Z,82.43
2022-11-13T10:20:38.594Z,81.98
2022-11-13T10:22:55.979Z,82.15
2022-11-13T10:25:14.267Z,81.82
2022-11-13T10:27:31.723Z,82.27
2022-11-13T10:29:49.282Z,82.72
2022-11-13T10:32:06.319Z,82.52
2022-11-13T10:34:23.610Z,82.36
2022-11-13T10:36:40.819Z,82.05
2022-11-13T10:38:59.084Z,81.74
2022-11-13T10:41:16.268Z,81.48
2022-11-13T10:43:33.568Z,80.84
2022-11-13T10:45:50.587Z,80.61
2022-11-13T10:48:07.624Z,80.76
2022-11-13T10:50:24.557Z,80.52
2022-11-13T10:52:41.600Z,80.88
2022-11-13T10:54:58.610Z,80.16
2022-11-13T10:57:16.567Z,80.01
2022-11-13T10:59:33.562Z,78.18
2022-11-13T11:01:50.515Z,77.50
2022-11-13T11:04:07.570Z,77.67
2022-11-13T11:06:41.973Z,77.38
2022-11-13T11:09:03.697Z,77.16
2022-11-13T11:11:20.742Z,77.18
2022-11-13T11:13:37.664Z,77.52
2022-11-13T11:15:54.682Z,76.89
2022-11-13T11:18:11.610Z,76.67
2022-11-13T11:20:29.592Z,75.92
2022-11-13T11:22:46.863Z,76.06
2022-11-13T11:25:03.860Z,73.40
2022-11-13T11:27:20.818Z,72.45
2022-11-13T11:29:37.807Z,73.81
2022-11-13T11:31:55.768Z,74.81
2022-11-13T11:34:14.024Z,75.16
2022-11-13T11:36:31.001Z,75.29
2022-11-13T11:38:48.034Z,73.62
2022-11-13T11:41:04.966Z,73.20
2022-11-13T11:43:22.147Z,72.67
2022-11-13T11:45:40.540Z,73.53
2022-11-13T11:47:57.594Z,73.04
2022-11-13T11:50:14.695Z,72.56
2022-11-13T11:52:31.773Z,73.13
2022-11-13T11:54:48.735Z,73.03
2022-11-13T11:57:05.993Z,72.76
2022-11-13T11:59:22.920Z,73.24
2022-11-13T12:01:39.886Z,72.61
2022-11-13T12:03:56.724Z,71.55
2022-11-13T12:06:13.790Z,70.77
2022-11-13T12:08:31.036Z,71.28
2022-11-13T12:10:48.646Z,70.72
2022-11-13T12:13:06.066Z,71.30
2022-11-13T12:15:23.271Z,69.83
2022-11-13T12:17:40.280Z,70.35
2022-11-13T12:19:58.575Z,69.54
2022-11-13T12:22:15.562Z,70.31
2022-11-13T12:24:32.844Z,70.20
2022-11-13T12:26:49.825Z,69.69
2022-11-13T12:29:07.823Z,70.03
2022-11-13T12:31:25.100Z,69.08
2022-11-13T12:33:43.345Z,67.58
2022-11-13T12:36:01.784Z,69.56
2022-11-13T12:38:18.810Z,69.45
2022-11-13T12:40:38.695Z,68.73
2022-11-13T12:43:00.081Z,67.60
2022-11-13T12:45:16.902Z,68.01
2022-11-13T12:47:36.415Z,67.47
2022-11-13T12:49:53.660Z,67.80
2022-11-13T12:52:10.641Z,68.24
2022-11-13T12:54:27.921Z,67.36
2022-11-13T12:56:44.863Z,66.88
2022-11-13T12:59:29.254Z,67.70
2022-11-13T13:01:39.934Z,68.83
2022-11-13T13:03:56.999Z,67.24
2022-11-13T13:06:14.738Z,68.06
2022-11-13T13:08:32.214Z,67.75
2022-11-13T13:10:50.403Z,67.95
2022-11-13T13:13:08.658Z,65.65
2022-11-13T13:15:25.676Z,66.85
2022-11-13T13:17:42.644Z,67.89
2022-11-13T13:19:59.624Z,68.12
2022-11-13T13:22:16.645Z,66.86
2022-11-13T13:24:33.509Z,68.25
2022-11-13T13:26:50.436Z,68.31
2022-11-13T13:29:07.430Z,68.11
2022-11-13T13:31:24.718Z,66.83
2022-11-13T13:33:41.753Z,69.02
2022-11-13T13:35:59.138Z,69.07
2022-11-13T13:38:16.341Z,68.09
2022-11-13T13:40:34.360Z,69.38
2022-11-13T13:42:51.608Z,68.60
2022-11-13T13:45:08.834Z,69.88
2022-11-13T13:47:25.867Z,70.27
2022-11-13T13:49:42.754Z,70.34
2022-11-13T13:52:01.251Z,70.24
2022-11-13T13:54:18.277Z,69.97
2022-11-13T13:56:35.481Z,69.68
2022-11-13T13:58:52.464Z,70.97
2022-11-13T14:01:18.981Z,71.10
2022-11-13T14:03:37.136Z,70.76
2022-11-13T14:05:56.978Z,71.07
2022-11-13T14:08:16.577Z,71.46
2022-11-13T14:10:35.141Z,72.99
2022-11-13T14:12:52.340Z,72.83
2022-11-13T14:15:09.623Z,73.13
2022-11-13T14:17:26.594Z,73.75
2022-11-13T14:19:43.920Z,74.91
2022-11-13T14:22:01.144Z,74.70
2022-11-13T14:24:19.187Z,75.93
2022-11-13T14:26:36.460Z,75.74
2022-11-13T14:28:54.394Z,74.69
2022-11-13T14:31:11.663Z,75.84
2022-11-13T14:33:28.647Z,76.34
2022-11-13T14:35:46.036Z,77.34
2022-11-13T14:38:03.339Z,77.70
2022-11-13T14:40:20.304Z,77.88
2022-11-13T14:42:37.566Z,78.41
2022-11-13T14:44:54.878Z,79.62
2022-11-13T14:47:11.813Z,80.29
2022-11-13T14:49:29.131Z,80.21
2022-11-13T14:51:46.336Z,80.77
2022-11-13T14:54:09.131Z,80.25
2022-11-13T14:56:26.160Z,80.30
2022-11-13T14:58:43.095Z,80.59
2022-11-13T15:01:03.270Z,80.78
2022-11-13T15:03:20.615Z,81.98
2022-11-13T15:05:37.690Z,81.25
2022-11-13T15:07:54.677Z,81.86
2022-11-13T15:10:11.672Z,82.82
2022-11-13T15:12:29.113Z,82.29
2022-11-13T15:14:46.203Z,83.71
2022-11-13T15:17:03.443Z,84.12
2022-11-13T15:19:23.105Z,84.31
2022-11-13T15:21:40.013Z,83.26
2022-11-13T15:23:57.297Z,83.81
2022-11-13T15:26:15.530Z,85.18
2022-11-13T15:28:32.487Z,84.96
2022-11-13T15:30:51.530Z,85.13
2022-11-13T15:33:09.578Z,85.07
2022-11-13T15:35:26.853Z,85.27
2022-11-13T15:37:46.317Z,85.15
2022-11-13T15:40:04.649Z,84.67
2022-11-13T15:42:21.565Z,85.60
2022-11-13T15:44:38.843Z,85.32
2022-11-13T15:46:56.115Z,85.35
2022-11-13T15:49:13.090Z,85.57
2022-11-13T15:51:30.124Z,85.40
2022-11-13T15:53:47.316Z,85.71
2022-11-13T15:56:04.321Z,84.83
2022-11-13T15:58:21.938Z,85.96
2022-11-13T16:00:38.944Z,85.33
2022-11-13T16:02:56.030Z,85.07
2022-11-13T16:05:14.539Z,85.27
2022-11-13T16:07:31.685Z,85.40
2022-11-13T16:09:48.710Z,86.32
2022-11-13T16:12:06.907Z,86.43
2022-11-13T16:14:25.265Z,86.30
2022-11-13T16:16:42.718Z,86.09
2022-11-13T16:19:00.576Z,85.48
2022-11-13T16:21:17.604Z,85.61
2022-11-13T16:23:34.626Z,85.73
2022-11-13T16:25:51.501Z,86.36
2022-11-13T16:28:08.615Z,85.80
2022-11-13T16:30:25.883Z,86.51
2022-11-13T16:32:43.442Z,86.69
2022-11-13T16:35:00.458Z,86.49
2022-11-13T16:37:17.725Z,86.30
2022-11-13T16:39:35.817Z,86.55
2022-11-13T16:41:52.908Z,86.87
2022-11-13T16:44:09.957Z,86.97
2022-11-13T16:46:28.191Z,86.92
2022-11-13T16:48:45.068Z,86.90
2022-11-13T16:51:02.366Z,86.79
2022-11-13T16:53:19.405Z,86.93
2022-11-13T16:55:36.439Z,86.48
2022-11-13T16:57:53.373Z,86.89
2022-11-13T17:00:10.445Z,86.82
2022-11-13T17:02:27.668Z,86.84
2022-11-13T17:04:45.621Z,87.13
2022-11-13T17:07:03.005Z,87.50
2022-11-13T17:09:20.242Z,87.20
2022-11-13T17:11:37.503Z,87.09
2022-11-13T17:13:54.742Z,87.11
2022-11-13T17:16:11.850Z,87.04
2022-11-13T17:18:29.238Z,86.74
2022-11-13T17:20:47.704Z,86.89
2022-11-13T17:23:05.115Z,86.66
2022-11-13T17:25:22.131Z,87.44
2022-11-13T17:27:39.265Z,88.10
2022-11-13T17:29:56.839Z,86.97
2022-11-13T17:32:14.794Z,87.77
2022-11-13T17:34:31.859Z,87.27
2022-11-13T17:36:49.103Z,87.39
2022-11-13T17:39:07.094Z,87.99
2022-11-13T17:41:24.474Z,88.25
2022-11-13T17:43:42.533Z,87.72
2022-11-13T17:45:59.698Z,87.56
2022-11-13T17:48:16.774Z,88.16
2022-11-13T17:50:33.750Z,87.16
2022-11-13T17:52:51.543Z,87.72
2022-11-13T17:55:08.887Z,87.96
2022-11-13T17:57:27.229Z,87.90
2022-11-13T17:59:44.621Z,87.01
2022-11-13T18:02:03.047Z,87.80
2022-11-13T18:04:20.247Z,88.23
2022-11-13T18:06:37.968Z,88.01
2022-11-13T18:08:58.772Z,87.85
2022-11-13T18:11:15.995Z,88.12
2022-11-13T18:13:34.266Z,87.40
2022-11-13T18:15:51.744Z,87.82
2022-11-13T18:18:10.495Z,87.20
2022-11-13T18:20:28.860Z,87.36
2022-11-13T18:22:51.222Z,87.42
2022-11-13T18:25:08.538Z,87.63
2022-11-13T18:27:28.497Z,88.08
2022-11-13T18:29:45.434Z,87.44
2022-11-13T18:32:05.397Z,87.67
2022-11-13T18:34:22.725Z,87.47
2022-11-13T18:36:40.149Z,88.81
2022-11-13T18:38:57.134Z,88.49
2022-11-13T18:41:16.957Z,87.67
2022-11-13T18:43:34.068Z,88.67
2022-11-13T18:45:51.240Z,87.75
2022-11-13T18:48:08.625Z,88.30
2022-11-13T18:50:25.732Z,88.24
2022-11-13T18:52:42.810Z,87.87
2022-11-13T18:54:59.882Z,87.94
2022-11-13T18:57:16.975Z,88.07
2022-11-13T18:59:33.983Z,88.84
2022-11-13T19:01:51.056Z,88.50
2022-11-13T19:04:26.358Z,88.20
2022-11-13T19:06:43.476Z,87.69
2022-11-13T19:09:00.718Z,88.02
2022-11-13T19:11:18.961Z,88.56
2022-11-13T19:13:35.963Z,87.62
2022-11-13T19:15:53.726Z,88.80
2022-11-13T19:18:10.828Z,88.88
2022-11-13T19:20:28.014Z,88.56
2022-11-13T19:22:52.674Z,88.79
2022-11-13T19:25:10.273Z,87.85
2022-11-13T19:27:27.221Z,88.45
2022-11-13T19:29:44.292Z,87.58
2022-11-13T19:32:01.314Z,87.48
2022-11-13T19:34:19.688Z,88.30
2022-11-13T19:36:36.649Z,87.68
2022-11-13T19:38:56.270Z,87.60
2022-11-13T19:41:13.310Z,88.33
2022-11-13T19:43:30.192Z,87.90
2022-11-13T19:45:47.859Z,87.88
2022-11-13T19:48:05.244Z,88.22
2022-11-13T19:50:22.282Z,88.02
2022-11-13T19:52:39.226Z,89.08
2022-11-13T19:54:56.319Z,89.04
2022-11-13T19:57:13.356Z,88.17
2022-11-13T19:59:30.301Z,87.92
2022-11-13T20:01:47.722Z,88.96
2022-11-13T20:04:08.196Z,88.45
2022-11-13T20:06:26.326Z,88.71
2022-11-13T20:08:43.901Z,88.32
2022-11-13T20:11:02.182Z,88.85
2022-11-13T20:13:20.448Z,88.70
2022-11-13T20:15:37.805Z,88.28
2022-11-13T20:17:55.192Z,89.02
2022-11-13T20:20:13.083Z,89.11
2022-11-13T20:22:30.255Z,88.65
2022-11-13T20:24:47.664Z,88.57
2022-11-13T20:27:05.899Z,88.06
2022-11-13T20:29:22.920Z,88.89
2022-11-13T20:31:41.130Z,88.71
2022-11-13T20:33:58.393Z,88.38
2022-11-13T20:36:15.848Z,88.65
2022-11-13T20:38:33.129Z,88.85
2022-11-13T20:40:50.334Z,88.67
2022-11-13T20:43:07.717Z,88.27
2022-11-13T20:45:25.057Z,88.73
2022-11-13T20:47:42.087Z,88.41
2022-11-13T20:49:59.172Z,89.20
2022-11-13T20:52:16.194Z,89.55
2022-11-13T20:54:33.333Z,89.13
2022-11-13T20:56:50.278Z,88.68
2022-11-13T20:59:07.300Z,88.39
2022-11-13T21:01:25.564Z,88.79
2022-11-13T21:03:42.691Z,88.91
2022-11-13T21:05:59.635Z,89.14
2022-11-13T21:08:16.669Z,89.18
2022-11-13T21:10:33.696Z,88.46
2022-11-13T21:12:51.001Z,89.17
2022-11-13T21:15:08.249Z,88.69
2022-11-13T21:17:25.470Z,88.99
2022-11-13T21:19:43.720Z,88.38
2022-11-13T21:22:00.645Z,88.92
2022-11-13T21:24:17.623Z,88.83
2022-11-13T21:26:34.878Z,88.45
2022-11-13T21:28:51.887Z,88.88
2022-11-13T21:31:08.938Z,88.88
2022-11-13T21:33:26.045Z,88.83
2022-11-13T21:35:43.095Z,89.17
2022-11-13T21:37:59.974Z,88.55
2022-11-13T21:40:17.088Z,88.43
2022-11-13T21:42:34.086Z,88.25
2022-11-13T21:44:51.427Z,88.98
2022-11-13T21:47:08.698Z,88.59
2022-11-13T21:49:25.705Z,88.65
2022-11-13T21:51:42.992Z,88.85
2022-11-13T21:54:00.938Z,88.89
2022-11-13T21:56:17.951Z,88.52
2022-11-13T21:58:34.979Z,88.27
2022-11-13T22:00:52.299Z,89.10
2022-11-13T22:03:09.549Z,88.90
2022-11-13T22:05:26.504Z,89.26
2022-11-13T22:07:43.982Z,89.49
2022-11-13T22:10:07.987Z,88.69
2022-11-13T22:12:25.512Z,88.58
2022-11-13T22:14:42.522Z,88.67
2022-11-13T22:16:59.645Z,88.74
2022-11-13T22:19:19.424Z,89.12
2022-11-13T22:21:39.890Z,89.15
2022-11-13T22:23:56.921Z,89.29
2022-11-13T22:26:14.905Z,88.65
2022-11-13T22:28:32.172Z,88.99
2022-11-13T22:30:49.318Z,88.62
2022-11-13T22:33:06.343Z,89.19
2022-11-13T22:35:23.600Z,89.34
2022-11-13T22:37:41.614Z,89.32
2022-11-13T22:39:58.600Z,89.29
2022-11-13T22:42:15.958Z,89.33
2022-11-13T22:44:54.341Z,88.93
2022-11-13T22:47:09.792Z,89.36
2022-11-13T22:49:26.782Z,89.23
2022-11-13T22:51:43.847Z,88.63
2022-11-13T22:54:00.842Z,88.69
2022-11-13T22:56:19.899Z,89.16
2022-11-13T22:58:36.944Z,88.95
2022-11-13T23:00:54.227Z,89.18
2022-11-13T23:03:12.253Z,89.36
2022-11-13T23:05:30.586Z,89.27
2022-11-13T23:07:48.630Z,89.30
2022-11-13T23:10:06.711Z,89.78
2022-11-13T23:12:23.741Z,89.63
2022-11-13T23:14:41.135Z,89.72
2022-11-13T23:16:58.461Z,89.82
2022-11-13T23:19:16.760Z,89.88
2022-11-13T23:21:33.707Z,90.30
2022-11-13T23:23:51.035Z,89.67
2022-11-13T23:26:07.996Z,90.08
2022-11-13T23:28:24.917Z,89.48
2022-11-13T23:30:42.169Z,89.85
2022-11-13T23:32:59.261Z,89.90
2022-11-13T23:35:16.591Z,89.87
2022-11-13T23:37:33.988Z,89.67
2022-11-13T23:39:51.288Z,89.51
2022-11-13T23:42:08.808Z,89.48
2022-11-13T23:44:26.030Z,89.58
2022-11-13T23:46:43.157Z,89.56
2022-11-13T23:49:02.644Z,89.27
2022-11-13T23:51:19.874Z,89.46
2022-11-13T23:53:37.247Z,89.54
2022-11-13T23:55:55.051Z,89.38
2022-11-13T23:58:12.413Z,89.35
